Time;durP1;ratioP1;P1;durP2;ratioP2;P2;SDS_P1;SDS_P2;PMS_P1;PMS_P2;Temp;Humidity;BMP_temperature;BMP_pressure;BME280_temperature;BME280_humidity;BME280_pressure;Samples;Min_cycle;Max_cycle;Signal;HPM_P1;HPM_P2
2021/06/29 00:02:08;;;;;;;13.48;11.77;;;20.30;99.90;;;;;;6075910;23;20022;-89
2021/06/29 00:05:48;;;;;;;;;;;;;;;;;;;;;
2021/06/29 00:14:48;;;;;;;14.20;12.57;;;20.20;99.90;;;;;;6209083;23;20004;-88
2021/06/29 00:17:37;;;;;;;;;;;;;;;;;;;;;
2021/06/29 00:20:24;;;;;;;;;;;;;;;;;;;;;
2021/06/29 00:23:07;;;;;;;14.13;12.48;;;20.10;99.90;;;;;;6208913;23;20103;-88
2021/06/29 00:25:59;;;;;;;13.23;11.82;;;20.20;99.90;;;;;;6288705;22;20054;-89
2021/06/29 00:28:33;;;;;;;14.57;12.73;;;20.10;99.90;;;;;;6277138;22;19999;-89
2021/06/29 00:31:21;;;;;;;13.68;12.15;;;20.10;99.90;;;;;;6277481;22;20004;-89
2021/06/29 00:33:57;;;;;;;16.55;13.00;;;20.10;99.90;;;;;;6277751;22;20409;-90
2021/06/29 00:36:46;;;;;;;14.40;12.80;;;20.10;99.90;;;;;;6279258;22;19996;-89
2021/06/29 00:39:34;;;;;;;18.17;13.35;;;20.10;99.90;;;;;;6277443;22;20011;-89
2021/06/29 00:42:13;;;;;;;;;;;;;;;;;;;;;
2021/06/29 00:44:39;;;;;;;17.55;13.65;;;20.10;99.90;;;;;;6279634;22;20071;-93
2021/06/29 00:47:12;;;;;;;16.58;13.52;;;20.10;99.90;;;;;;6278232;22;20042;-94
2021/06/29 00:49:38;;;;;;;15.98;13.70;;;20.20;99.90;;;;;;6279462;22;20008;-93
2021/06/29 00:52:09;;;;;;;13.93;12.48;;;20.10;99.90;;;;;;6276526;22;20085;-93
2021/06/29 00:54:41;;;;;;;17.10;14.05;;;20.20;99.90;;;;;;6276706;22;20004;-94
2021/06/29 00:57:12;;;;;;;17.20;14.57;;;20.20;99.90;;;;;;6255461;22;20016;-94
2021/06/29 00:59:41;;;;;;;17.17;13.52;;;20.20;99.90;;;;;;6274867;22;20006;-94
2021/06/29 01:02:12;;;;;;;15.05;13.25;;;20.10;99.90;;;;;;6278886;22;20329;-93
2021/06/29 01:04:45;;;;;;;17.42;14.25;;;20.20;99.90;;;;;;6291936;22;20006;-92
2021/06/29 01:07:15;;;;;;;16.05;13.30;;;20.20;99.90;;;;;;6305408;22;19984;-94
2021/06/29 01:09:43;;;;;;;17.40;14.13;;;20.20;99.90;;;;;;6297996;22;20006;-94
2021/06/29 01:12:12;;;;;;;17.15;14.05;;;20.20;99.90;;;;;;6282562;22;19995;-94
2021/06/29 01:14:47;;;;;;;15.10;12.52;;;20.20;99.90;;;;;;6281779;22;20003;-94
2021/06/29 01:17:13;;;;;;;15.52;13.20;;;20.20;99.90;;;;;;6280921;22;20026;-93
2021/06/29 01:19:45;;;;;;;14.15;12.65;;;20.20;99.90;;;;;;6278209;22;20428;-94
2021/06/29 01:22:12;;;;;;;15.10;12.83;;;20.10;99.90;;;;;;6279446;22;20076;-92
2021/06/29 01:24:40;;;;;;;15.05;12.48;;;20.10;99.90;;;;;;6276256;22;20027;-94
2021/06/29 01:27:25;;;;;;;14.32;12.15;;;20.10;99.90;;;;;;6278369;22;20004;-94
2021/06/29 01:32:27;;;;;;;14.85;12.50;;;20.10;99.90;;;;;;6277439;22;20003;-92
2021/06/29 01:34:56;;;;;;;13.95;12.18;;;20.10;99.90;;;;;;6277524;22;20004;-93
2021/06/29 01:37:23;;;;;;;13.77;11.02;;;20.10;99.90;;;;;;6283467;22;20059;-90
2021/06/29 01:39:58;;;;;;;13.60;11.43;;;20.10;99.90;;;;;;6283645;22;20007;-91
2021/06/29 01:42:25;;;;;;;14.75;11.82;;;20.10;99.90;;;;;;6283112;22;20018;-92
2021/06/29 01:44:53;;;;;;;17.33;11.90;;;20.10;99.90;;;;;;6279187;22;19996;-92
2021/06/29 01:47:36;;;;;;;13.38;11.65;;;20.10;99.90;;;;;;6279970;22;20077;-92
2021/06/29 01:50:11;;;;;;;14.18;11.40;;;20.10;99.90;;;;;;6280343;22;20141;-92
2021/06/29 01:52:38;;;;;;;16.60;12.80;;;20.10;99.90;;;;;;6290662;22;20004;-92
2021/06/29 01:55:07;;;;;;;17.95;14.18;;;20.10;99.90;;;;;;6281766;22;20007;-92
2021/06/29 01:57:37;;;;;;;19.65;14.73;;;20.00;99.90;;;;;;6276983;22;20007;-93
2021/06/29 02:00:15;;;;;;;16.83;13.73;;;20.00;99.90;;;;;;6278997;22;20008;-93
2021/06/29 02:02:42;;;;;;;16.27;14.27;;;20.00;99.90;;;;;;6277529;22;20006;-93
2021/06/29 02:05:09;;;;;;;17.13;13.65;;;19.90;99.90;;;;;;6278775;22;20000;-92
2021/06/29 02:07:40;;;;;;;17.33;13.25;;;19.90;99.90;;;;;;6276631;22;20421;-92
2021/06/29 02:10:19;;;;;;;16.50;12.77;;;19.90;99.90;;;;;;6276138;22;20035;-90
2021/06/29 02:12:47;;;;;;;15.77;13.70;;;19.90;99.90;;;;;;6277205;22;19996;-93
2021/06/29 02:15:21;;;;;;;16.42;12.98;;;19.90;99.90;;;;;;6278862;22;19999;-93
2021/06/29 02:17:48;;;;;;;19.48;14.18;;;19.90;99.90;;;;;;6277170;22;20035;-91
2021/06/29 02:20:17;;;;;;;18.00;13.15;;;19.80;99.90;;;;;;6277041;22;20035;-92
2021/06/29 02:22:55;;;;;;;17.90;15.00;;;19.80;99.90;;;;;;6278226;22;20050;-91
2021/06/29 02:25:31;;;;;;;17.33;13.80;;;19.80;99.90;;;;;;6278440;22;20007;-91
2021/06/29 02:27:59;;;;;;;17.13;12.93;;;19.80;99.90;;;;;;6278386;22;20027;-90
2021/06/29 02:30:36;;;;;;;15.93;13.15;;;19.80;99.90;;;;;;6277068;22;20328;-91
2021/06/29 02:33:12;;;;;;;16.55;12.52;;;19.80;99.90;;;;;;6277103;22;20072;-91
2021/06/29 02:36:00;;;;;;;15.68;11.68;;;19.80;99.90;;;;;;6277632;22;20083;-91
2021/06/29 02:38:38;;;;;;;;;;;;;;;;;;;;;
2021/06/29 02:41:09;;;;;;;15.90;12.18;;;19.70;99.90;;;;;;6290412;22;20531;-93
2021/06/29 02:43:58;;;;;;;13.80;11.18;;;19.80;99.90;;;;;;6312590;22;19999;-91
2021/06/29 02:46:37;;;;;;;;;;;;;;;;;;;;;
2021/06/29 02:49:06;;;;;;;14.77;12.00;;;19.70;99.90;;;;;;6315278;22;20082;-90
2021/06/29 02:51:36;;;;;;;17.20;13.43;;;19.70;99.90;;;;;;6340720;22;20017;-90
2021/06/29 02:54:15;;;;;;;;;;;;;;;;;;;;;
2021/06/29 02:56:53;;;;;;;15.00;12.88;;;19.60;99.90;;;;;;6342016;22;19987;-90
2021/06/29 02:59:24;;;;;;;14.05;11.85;;;19.60;99.90;;;;;;6332616;22;20026;-91
2021/06/29 03:01:52;;;;;;;14.25;12.30;;;19.60;99.90;;;;;;6313549;22;20007;-91
2021/06/29 03:04:21;;;;;;;14.43;12.70;;;19.60;99.90;;;;;;6341687;22;20007;-91
2021/06/29 03:06:55;;;;;;;16.13;12.52;;;19.60;99.90;;;;;;6340276;22;20033;-92
2021/06/29 03:09:26;;;;;;;15.35;12.35;;;19.60;99.90;;;;;;6312071;22;20342;-92
2021/06/29 03:11:55;;;;;;;16.60;13.77;;;19.60;99.90;;;;;;6340174;22;20013;-91
2021/06/29 03:14:20;;;;;;;16.35;13.40;;;19.60;99.90;;;;;;6312475;22;20411;-91
2021/06/29 03:16:55;;;;;;;17.00;14.07;;;19.60;99.90;;;;;;6313258;22;19999;-92
2021/06/29 03:19:29;;;;;;;15.15;13.45;;;19.60;99.90;;;;;;6342922;22;20361;-92
2021/06/29 03:22:07;;;;;;;18.58;15.70;;;19.60;99.90;;;;;;6342387;22;20003;-94
2021/06/29 03:24:35;;;;;;;17.05;14.25;;;19.60;99.90;;;;;;6315164;22;20002;-91
2021/06/29 03:27:04;;;;;;;17.17;13.80;;;19.60;99.90;;;;;;6315240;22;20003;-93
2021/06/29 03:29:34;;;;;;;18.02;13.90;;;19.60;99.90;;;;;;6343158;22;20016;-93
2021/06/29 03:32:15;;;;;;;17.08;12.80;;;19.60;99.90;;;;;;6342815;22;20028;-92
2021/06/29 03:34:46;;;;;;;21.10;15.50;;;19.70;99.90;;;;;;6342369;22;19995;-93
2021/06/29 03:37:12;;;;;;;17.40;13.52;;;19.70;99.90;;;;;;6342254;22;20075;-92
2021/06/29 03:39:45;;;;;;;17.08;14.13;;;19.70;99.90;;;;;;6315050;22;20085;-92
2021/06/29 03:42:21;;;;;;;;;;;;;;;;;;;;;
2021/06/29 03:44:47;;;;;;;18.52;14.35;;;19.70;99.90;;;;;;6342302;22;20079;-92
2021/06/29 03:47:15;;;;;;;19.52;13.90;;;19.70;99.90;;;;;;6314554;22;20003;-92
2021/06/29 03:49:41;;;;;;;19.48;14.23;;;19.70;99.90;;;;;;6342590;22;19999;-92
2021/06/29 03:52:13;;;;;;;17.52;13.45;;;19.70;99.90;;;;;;6315217;22;20468;-92
2021/06/29 03:54:39;;;;;;;15.17;12.60;;;19.80;99.90;;;;;;6315018;22;20043;-92
2021/06/29 03:57:12;;;;;;;18.40;14.27;;;19.80;99.90;;;;;;6355465;22;20221;-93
2021/06/29 03:59:37;;;;;;;;;;;19.90;99.90;;;;;;6346305;22;20069;-93
2021/06/29 04:02:15;;;;;;;;;;;;;;;;;;;;;
2021/06/29 04:04:43;;;;;;;15.75;12.60;;;19.80;99.90;;;;;;6342088;22;20067;-92
2021/06/29 04:07:14;;;;;;;20.92;14.65;;;19.90;99.90;;;;;;6315086;22;20362;-93
2021/06/29 04:09:47;;;;;;;19.00;14.80;;;19.80;99.90;;;;;;6314736;22;20431;-93
2021/06/29 04:12:26;;;;;;;;;;;;;;;;;;;;;
2021/06/29 04:14:52;;;;;;;15.48;12.15;;;19.80;99.90;;;;;;6342010;22;19985;-93
2021/06/29 04:17:20;;;;;;;16.85;13.35;;;19.80;99.90;;;;;;6314598;22;19995;-92
2021/06/29 04:19:50;;;;;;;17.33;14.65;;;19.80;99.90;;;;;;6314301;22;20002;-92
2021/06/29 04:22:19;;;;;;;18.05;14.07;;;19.80;99.90;;;;;;6341685;22;20018;-92
2021/06/29 04:24:56;;;;;;;15.88;13.52;;;19.80;99.90;;;;;;6314449;22;20002;-92
2021/06/29 04:27:24;;;;;;;16.63;12.73;;;19.90;99.90;;;;;;6314235;22;20016;-93
2021/06/29 04:29:59;;;;;;;14.35;12.13;;;19.90;99.90;;;;;;6314171;22;20003;-92
2021/06/29 04:32:26;;;;;;;16.92;12.90;;;19.90;99.90;;;;;;6290114;22;20076;-93
2021/06/29 04:35:05;;;;;;;16.40;13.00;;;19.90;99.90;;;;;;6311863;22;20383;-92
2021/06/29 04:37:40;;;;;;;17.55;12.80;;;19.90;99.90;;;;;;6311719;22;20024;-93
2021/06/29 04:40:22;;;;;;;;;;;;;;;;;;;;;
2021/06/29 04:42:58;;;;;;;17.90;13.73;;;20.00;99.90;;;;;;6338794;22;20086;-93
2021/06/29 04:45:48;;;;;;;15.32;12.88;;;20.00;99.90;;;;;;6366327;22;19979;-90
2021/06/29 04:48:14;;;;;;;17.48;13.07;;;20.00;99.90;;;;;;6363800;22;20011;-93
2021/06/29 04:50:44;;;;;;;16.67;13.63;;;20.00;99.90;;;;;;6312635;22;20365;-93
2021/06/29 04:53:19;;;;;;;16.38;13.30;;;20.00;99.90;;;;;;6340277;22;19999;-93
2021/06/29 04:55:53;;;;;;;15.27;11.93;;;20.10;99.90;;;;;;6339531;22;20044;-91
2021/06/29 04:58:49;;;;;;;;;;;;;;;;;;;;;
2021/06/29 05:01:34;;;;;;;18.23;14.25;;;20.10;99.90;;;;;;6334714;22;20097;-91
2021/06/29 05:04:02;;;;;;;15.32;11.80;;;20.10;99.90;;;;;;6311281;22;20037;-91
2021/06/29 05:06:43;;;;;;;;;;;;;;;;;;;;;
2021/06/29 05:09:18;;;;;;;16.67;13.77;;;20.10;99.90;;;;;;6337786;22;20082;-92
2021/06/29 05:12:01;;;;;;;17.83;13.15;;;20.10;99.90;;;;;;6312283;22;20003;-94
2021/06/29 05:14:38;;;;;;;17.67;13.68;;;20.10;99.90;;;;;;6339962;22;20073;-92
2021/06/29 05:17:14;;;;;;;19.15;15.07;;;20.10;99.90;;;;;;6339533;22;20068;-93
2021/06/29 05:19:57;;;;;;;18.58;14.32;;;20.10;99.90;;;;;;6310420;22;20495;-94
2021/06/29 05:22:32;;;;;;;18.35;14.52;;;20.10;99.90;;;;;;6313651;22;20030;-92
2021/06/29 05:25:20;;;;;;;;;;;;;;;;;;;;;
2021/06/29 05:27:46;;;;;;;15.77;12.27;;;20.10;99.90;;;;;;6314309;22;20078;-91
2021/06/29 05:30:16;;;;;;;17.02;12.90;;;20.10;99.90;;;;;;6338987;22;20085;-94
2021/06/29 05:33:26;;;;;;;16.50;13.70;;;20.20;99.90;;;;;;6311046;22;20025;-93
2021/06/29 05:36:32;;;;;;;;;;;;;;;;;;;;;
2021/06/29 05:39:07;;;;;;;17.17;13.52;;;20.20;99.90;;;;;;6315534;22;20060;-96
2021/06/29 05:42:07;;;;;;;16.90;13.32;;;20.20;99.90;;;;;;6289260;22;20022;-95
2021/06/29 05:45:04;;;;;;;18.23;13.65;;;20.20;99.90;;;;;;6346014;22;20007;-96
2021/06/29 05:47:34;;;;;;;18.65;13.52;;;20.20;99.90;;;;;;6318830;22;20015;-96
2021/06/29 05:50:09;;;;;;;19.88;15.02;;;20.20;99.90;;;;;;6343006;22;20082;-95
2021/06/29 05:52:49;;;;;;;21.90;16.23;;;20.20;99.90;;;;;;6343834;22;20006;-96
2021/06/29 05:55:49;;;;;;;27.48;20.17;;;20.20;99.90;;;;;;6320618;22;20010;-95
2021/06/29 05:58:45;;;;;;;24.10;18.77;;;20.30;99.90;;;;;;6328006;22;20082;-95
2021/06/29 06:01:34;;;;;;;25.35;20.27;;;20.30;99.90;;;;;;6314394;22;19994;-95
2021/06/29 06:04:14;;;;;;;22.58;17.85;;;20.40;99.90;;;;;;6321976;22;20018;-94
2021/06/29 06:06:46;;;;;;;20.30;15.95;;;20.40;99.90;;;;;;6294551;22;20003;-95
2021/06/29 06:09:32;;;;;;;20.42;16.02;;;20.50;99.90;;;;;;6321148;22;20053;-94
2021/06/29 06:12:29;;;;;;;22.27;16.05;;;20.60;99.90;;;;;;6315447;22;20010;-94
2021/06/29 06:14:56;;;;;;;20.52;15.23;;;20.70;99.90;;;;;;6317434;22;19999;-94
2021/06/29 06:17:38;;;;;;;;;;;;;;;;;;;;;
2021/06/29 06:20:22;;;;;;;20.83;15.25;;;20.80;99.90;;;;;;6317503;22;20499;-95
2021/06/29 06:22:53;;;;;;;18.30;14.88;;;20.80;99.90;;;;;;6314560;22;20335;-93
2021/06/29 06:25:22;;;;;;;19.00;15.88;;;20.90;99.90;;;;;;6312723;22;20007;-93
2021/06/29 06:28:13;;;;;;;22.33;18.30;;;21.00;99.90;;;;;;6314347;22;20472;-94
2021/06/29 06:30:47;;;;;;;25.77;21.35;;;20.90;99.90;;;;;;6296071;22;20139;-95
2021/06/29 06:33:29;;;;;;;29.33;21.92;;;20.90;99.90;;;;;;6343312;22;20006;-94
2021/06/29 06:36:34;;;;;;;;;;;;;;;;;;;;;
2021/06/29 06:41:57;;;;;;;26.23;21.98;;;20.80;99.90;;;;;;6343025;22;20025;-93
2021/06/29 06:44:26;;;;;;;25.10;19.73;;;20.80;99.90;;;;;;6290407;22;20094;-93
2021/06/29 06:46:54;;;;;;;24.58;19.48;;;20.70;99.90;;;;;;6342653;22;20044;-93
2021/06/29 06:49:20;;;;;;;20.80;17.60;;;20.80;99.90;;;;;;6290238;22;20007;-95
2021/06/29 06:52:10;;;;;;;;;;;;;;;;;;;;;
2021/06/29 06:54:56;;;;;;;27.63;22.92;;;20.80;99.90;;;;;;6341679;22;20082;-92
2021/06/29 06:57:35;;;;;;;;;;;;;;;;;;;;;
2021/06/29 07:00:35;;;;;;;;;;;;;;;;;;;;;
2021/06/29 07:03:03;;;;;;;23.55;20.70;;;20.60;99.90;;;;;;6331304;22;20082;-93
2021/06/29 07:05:58;;;;;;;20.40;17.23;;;20.60;99.90;;;;;;6288460;22;20021;-95
2021/06/29 07:08:37;;;;;;;;;;;;;;;;;;;;;
2021/06/29 07:11:37;;;;;;;;;;;;;;;;;;;;;
2021/06/29 07:15:07;;;;;;;;;;;;;;;;;;;;;
2021/06/29 07:18:35;;;;;;;;;;;;;;;;;;;;;
2021/06/29 07:21:31;;;;;;;23.73;20.45;;;20.40;99.90;;;;;;6323218;22;20386;-95
2021/06/29 07:24:25;;;;;;;;;;;;;;;;;;;;;
2021/06/29 07:27:42;;;;;;;26.33;22.13;;;20.50;99.90;;;;;;6343799;22;20055;-94
2021/06/29 07:30:32;;;;;;;28.38;23.23;;;20.50;99.90;;;;;;6281453;22;20014;-95
2021/06/29 07:33:20;;;;;;;31.92;25.15;;;20.50;99.90;;;;;;6347769;22;19995;-95
2021/06/29 07:36:01;;;;;;;;;;;;;;;;;;;;;
2021/06/29 07:38:27;;;;;;;25.23;21.23;;;20.30;99.90;;;;;;6338835;22;20467;-86
2021/06/29 07:40:58;;;;;;;28.20;22.52;;;20.30;99.90;;;;;;6285010;22;20395;-86
2021/06/29 07:43:24;;;;;;;23.60;20.55;;;20.20;99.90;;;;;;6311049;22;20076;-86
2021/06/29 07:45:49;;;;;;;24.98;20.13;;;20.10;99.90;;;;;;6311260;22;20357;-87
2021/06/29 07:48:23;;;;;;;24.38;19.95;;;20.10;99.90;;;;;;6310763;22;20006;-86
2021/06/29 07:53:40;;;;;;;25.58;20.63;;;20.10;99.90;;;;;;6338178;22;20007;-87
2021/06/29 07:59:56;;;;;;;21.63;17.83;;;20.20;99.90;;;;;;6293343;22;20006;-88
2021/06/29 08:02:31;;;;;;;21.30;18.33;;;20.20;99.90;;;;;;6338075;22;20011;-87
2021/06/29 08:05:19;;;;;;;26.20;21.52;;;20.30;99.90;;;;;;6342736;22;19995;-88
2021/06/29 08:08:37;;;;;;;;;;;;;;;;;;;;;
2021/06/29 08:11:22;;;;;;;24.90;19.55;;;20.50;99.90;;;;;;6333399;22;20094;-88
2021/06/29 08:17:49;;;;;;;;;;;;;;;;;;;;;
2021/06/29 08:38:28;;;;;;;;;;;;;;;;;;;;;
2021/06/29 08:41:07;;;;;;;;;;;;;;;;;;;;;
2021/06/29 08:43:46;;;;;;;;;;;;;;;;;;;;;
2021/06/29 08:46:15;;;;;;;29.23;22.88;;;20.10;99.90;;;;;;6297007;22;20089;-86
2021/06/29 08:48:44;;;;;;;35.28;26.75;;;20.00;99.90;;;;;;6313706;22;20060;-86
2021/06/29 08:51:10;;;;;;;31.27;24.33;;;19.80;99.90;;;;;;6313546;22;20027;-86
2021/06/29 08:53:36;;;;;;;34.53;27.05;;;19.70;99.90;;;;;;6339812;22;19999;-86
2021/06/29 08:56:15;;;;;;;34.58;25.88;;;19.70;99.90;;;;;;6311392;22;20003;-86
2021/06/29 08:58:45;;;;;;;31.63;23.45;;;19.70;99.90;;;;;;6312578;22;20010;-86
2021/06/29 09:01:12;;;;;;;32.78;24.58;;;19.70;99.90;;;;;;6311880;22;20007;-87
2021/06/29 09:03:56;;;;;;;;;;;;;;;;;;;;;
2021/06/29 09:06:51;;;;;;;36.13;27.20;;;19.70;99.90;;;;;;6336434;22;20082;-87
2021/06/29 09:09:34;;;;;;;40.30;29.67;;;19.70;99.90;;;;;;6291687;22;20002;-87
2021/06/29 09:12:18;;;;;;;;;;;;;;;;;;;;;
2021/06/29 09:15:07;;;;;;;40.90;29.30;;;19.90;99.90;;;;;;6338219;22;20070;-86
2021/06/29 09:17:58;;;;;;;41.72;28.55;;;20.00;99.90;;;;;;6305680;22;20002;-86
2021/06/29 09:27:32;;;;;;;43.05;31.98;;;20.70;99.90;;;;;;6223106;22;20077;-87
2021/06/29 09:30:46;;;;;;;;;;;;;;;;;;;;;
2021/06/29 09:41:18;;;;;;;41.05;30.88;;;21.30;99.90;;;;;;6208126;23;20365;-88
2021/06/29 09:47:47;;;;;;;37.63;28.70;;;21.20;99.90;;;;;;6152594;23;20097;-87
2021/06/29 09:51:11;;;;;;;;;;;;;;;;;;;;;
2021/06/29 09:54:24;;;;;;;36.90;28.15;;;21.10;99.90;;;;;;6276888;22;20098;-88
2021/06/29 10:02:42;;;;;;;33.88;26.92;;;21.60;99.90;;;;;;6321883;22;20018;-89
2021/06/29 10:09:05;;;;;;;;;;;;;;;;;;;;;
2021/06/29 11:52:41;;;;;;;;;;;;;;;;;;;;;
2021/06/29 12:02:45;;;;;;;13.80;12.50;;;26.90;99.90;;;;;;6106599;23;20047;-93
2021/06/29 12:05:52;;;;;;;13.93;12.45;;;27.10;99.90;;;;;;6235194;22;20048;-94
2021/06/29 12:11:40;;;;;;;11.23;10.02;;;27.10;99.90;;;;;;6300054;22;19999;-93
2021/06/29 12:14:19;;;;;;;12.23;10.98;;;27.20;99.90;;;;;;6326346;22;20001;-90
2021/06/29 12:17:01;;;;;;;11.32;10.13;;;27.20;99.90;;;;;;6291749;22;20030;-93
2021/06/29 12:19:45;;;;;;;13.80;10.93;;;26.80;99.90;;;;;;6345521;22;20006;-93
2021/06/29 12:22:13;;;;;;;10.13;9.05;;;26.50;99.90;;;;;;6376013;22;20085;-94
2021/06/29 12:24:55;;;;;;;9.23;8.20;;;26.20;99.90;;;;;;6346634;22;20002;-95
2021/06/29 12:27:29;;;;;;;9.67;8.67;;;26.60;99.90;;;;;;6346843;22;20093;-93
2021/06/29 12:29:56;;;;;;;10.27;9.32;;;26.90;99.90;;;;;;6347142;22;20323;-94
2021/06/29 12:33:23;;;;;;;9.38;8.48;;;27.00;99.90;;;;;;6345625;22;20006;-94
2021/06/29 12:39:25;;;;;;;9.20;8.27;;;27.70;99.90;;;;;;6298610;22;20011;-91
2021/06/29 12:41:51;;;;;;;8.45;7.65;;;28.20;99.90;;;;;;6340491;22;20041;-94
2021/06/29 12:44:24;;;;;;;10.27;9.25;;;28.30;99.90;;;;;;6367293;22;20072;-93
2021/06/29 12:46:57;;;;;;;9.10;8.20;;;28.60;99.90;;;;;;6347716;22;20074;-91
2021/06/29 12:49:25;;;;;;;8.75;7.85;;;28.60;99.90;;;;;;6306261;22;20713;-92
2021/06/29 12:52:07;;;;;;;9.75;7.75;;;28.30;99.90;;;;;;6336499;22;20424;-91
2021/06/29 12:55:12;;;;;;;10.15;9.10;;;27.70;99.90;;;;;;6307099;22;20554;-91
2021/06/29 12:57:46;;;;;;;9.20;8.23;;;27.20;99.90;;;;;;6334084;22;20069;-90
2021/06/29 13:00:23;;;;;;;9.60;8.15;;;26.80;99.90;;;;;;6333361;22;19999;-91
2021/06/29 13:03:18;;;;;;;7.97;7.20;;;26.60;99.90;;;;;;6308854;22;20412;-93
2021/06/29 13:05:46;;;;;;;9.25;8.35;;;26.90;99.90;;;;;;6331303;22;20007;-92
2021/06/29 13:08:17;;;;;;;8.98;7.82;;;27.20;99.90;;;;;;6335263;22;20046;-92
2021/06/29 13:11:20;;;;;;;;;;;;;;;;;;;;;
2021/06/29 13:14:18;;;;;;;8.18;7.38;;;27.70;99.90;;;;;;6333854;22;20648;-92
2021/06/29 13:16:59;;;;;;;;;;;;;;;;;;;;;
2021/06/29 13:19:28;;;;;;;8.52;7.35;;;28.80;99.90;;;;;;6333497;22;20082;-92
2021/06/29 13:22:03;;;;;;;7.97;7.18;;;29.00;99.90;;;;;;6306210;22;20018;-89
2021/06/29 13:24:54;;;;;;;7.50;6.70;;;29.20;99.90;;;;;;6335130;22;20080;-93
2021/06/29 13:27:37;;;;;;;7.80;6.78;;;28.90;99.90;;;;;;6314839;22;20056;-93
2021/06/29 13:30:19;;;;;;;8.07;7.28;;;28.50;99.90;;;;;;6313456;22;20010;-90
2021/06/29 13:32:49;;;;;;;7.32;5.72;;;28.60;99.90;;;;;;6342788;22;20096;-93
2021/06/29 13:35:18;;;;;;;6.13;5.53;;;28.50;99.90;;;;;;6338807;22;20097;-93
2021/06/29 13:37:50;;;;;;;6.95;6.20;;;28.90;99.90;;;;;;6343002;22;20003;-92
2021/06/29 13:40:28;;;;;;;7.05;6.28;;;28.70;99.90;;;;;;6340115;22;20006;-90
2021/06/29 13:43:23;;;;;;;6.68;5.97;;;28.20;99.90;;;;;;6340676;22;20026;-94
2021/06/29 13:46:38;;;;;;;;;;;;;;;;;;;;;
2021/06/29 13:53:12;;;;;;;6.35;5.75;;;27.70;99.90;;;;;;6183092;23;20078;-88
2021/06/29 13:55:54;;;;;;;8.63;7.40;;;27.30;99.90;;;;;;6212652;23;20016;-91
2021/06/29 13:58:47;;;;;;;;;;;;;;;;;;;;;
2021/06/29 14:01:41;;;;;;;;;;;;;;;;;;;;;
2021/06/29 14:04:14;;;;;;;6.40;5.70;;;26.50;99.90;;;;;;6337089;22;20462;-88
2021/06/29 14:07:25;;;;;;;8.15;6.07;;;26.20;99.90;;;;;;6336860;22;20003;-90
2021/06/29 14:10:00;;;;;;;7.60;6.60;;;26.30;99.90;;;;;;6312335;22;20015;-92
2021/06/29 14:12:29;;;;;;;7.25;6.15;;;26.80;99.90;;;;;;6335177;22;20041;-92
2021/06/29 14:15:25;;;;;;;9.45;6.97;;;27.30;99.90;;;;;;6307163;22;20032;-89
2021/06/29 14:18:09;;;;;;;8.40;7.10;;;27.70;99.90;;;;;;6293643;22;20006;-88
2021/06/29 14:20:37;;;;;;;9.15;8.20;;;28.10;99.90;;;;;;6337629;22;20020;-93
2021/06/29 14:23:34;;;;;;;8.20;7.40;;;28.10;99.90;;;;;;6335622;22;20003;-91
2021/06/29 14:29:37;;;;;;;;;;;;;;;;;;;;;
2021/06/29 14:32:58;;;;;;;9.18;8.20;;;28.10;99.70;;;;;;6334238;22;20498;-91
2021/06/29 14:36:13;;;;;;;;;;;;;;;;;;;;;
2021/06/29 14:42:17;;;;;;;;;;;;;;;;;;;;;
2021/06/29 14:45:16;;;;;;;;;;;;;;;;;;;;;
2021/06/29 14:48:16;;;;;;;;;;;;;;;;;;;;;
2021/06/29 14:51:02;;;;;;;5.53;4.50;;;27.50;99.40;;;;;;6339710;22;20078;-92
2021/06/29 14:54:05;;;;;;;6.65;4.88;;;27.00;99.90;;;;;;6340559;22;20003;-92
2021/06/29 14:57:08;;;;;;;4.65;3.58;;;26.50;99.90;;;;;;6305686;22;20006;-95
2021/06/29 14:59:58;;;;;;;;;;;;;;;;;;;;;
2021/06/29 15:03:12;;;;;;;7.03;4.80;;;25.60;99.90;;;;;;6340160;22;20539;-92
2021/06/29 15:12:08;;;;;;;4.85;4.35;;;25.40;99.90;;;;;;6316680;22;20007;-93
2021/06/29 15:14:59;;;;;;;5.57;4.35;;;25.30;99.90;;;;;;6311303;22;20003;-91
2021/06/29 15:17:58;;;;;;;6.38;5.35;;;25.10;99.90;;;;;;6309989;22;20014;-94
2021/06/29 15:20:47;;;;;;;7.30;5.00;;;24.80;99.90;;;;;;6298701;22;20014;-94
2021/06/29 15:24:02;;;;;;;6.63;4.80;;;24.40;99.90;;;;;;6311963;22;20011;-92
2021/06/29 15:26:58;;;;;;;6.90;5.07;;;24.40;99.90;;;;;;6339224;22;20102;-94
2021/06/29 15:29:49;;;;;;;6.72;5.15;;;24.30;99.90;;;;;;6339124;22;20003;-92
2021/06/29 15:35:32;;;;;;;6.40;4.50;;;23.80;99.90;;;;;;6260029;22;20013;-95
2021/06/29 15:38:01;;;;;;;6.97;4.30;;;23.70;99.90;;;;;;6337034;22;19995;-94
2021/06/29 15:40:57;;;;;;;5.75;3.80;;;23.60;99.90;;;;;;6310316;22;19999;-94
2021/06/29 15:43:26;;;;;;;5.75;3.70;;;23.60;99.90;;;;;;6335857;22;20063;-92
2021/06/29 15:46:11;;;;;;;;;;;;;;;;;;;;;
2021/06/29 15:48:59;;;;;;;5.47;4.13;;;23.40;99.90;;;;;;6336624;22;20506;-95
2021/06/29 15:54:17;;;;;;;5.43;3.40;;;23.30;99.90;;;;;;6311548;22;20561;-92
2021/06/29 15:59:15;;;;;;;4.18;3.35;;;23.70;99.90;;;;;;6330247;22;20510;-90
2021/06/29 16:01:43;;;;;;;4.30;2.85;;;23.70;99.90;;;;;;6337008;22;20006;-93
2021/06/29 16:10:12;;;;;;;4.25;3.33;;;24.10;99.90;;;;;;6335395;22;20512;-93
2021/06/29 16:12:44;;;;;;;4.65;3.50;;;24.10;99.90;;;;;;6310262;22;20015;-90
2021/06/29 16:15:27;;;;;;;3.30;2.75;;;23.90;99.90;;;;;;6310743;22;20021;-92
2021/06/29 16:18:02;;;;;;;;;;;23.90;99.90;;;;;;6313352;22;20060;-94
2021/06/29 16:20:28;;;;;;;5.18;3.35;;;23.80;99.90;;;;;;6344055;22;20384;-91
2021/06/29 16:22:56;;;;;;;3.85;3.33;;;23.90;99.90;;;;;;6348632;22;19995;-90
2021/06/29 16:25:27;;;;;;;5.03;3.28;;;23.90;99.90;;;;;;6309469;22;20204;-92
2021/06/29 16:30:56;;;;;;;;;;;;;;;;;;;;;
2021/06/29 16:33:28;;;;;;;5.93;4.18;;;23.50;99.90;;;;;;6341387;22;20058;-95
2021/06/29 16:36:16;;;;;;;4.63;3.55;;;23.30;99.90;;;;;;6340180;22;20048;-92
2021/06/29 16:38:49;;;;;;;4.93;3.38;;;23.20;99.90;;;;;;6346050;22;20079;-94
2021/06/29 16:41:16;;;;;;;4.40;3.10;;;22.90;99.90;;;;;;6341805;22;20010;-94
2021/06/29 16:43:52;;;;;;;4.15;2.92;;;22.70;99.90;;;;;;6314335;22;19999;-92
2021/06/29 16:46:21;;;;;;;3.53;2.80;;;22.60;99.90;;;;;;6320175;22;20013;-94
2021/06/29 16:49:25;;;;;;;3.83;2.78;;;22.50;99.90;;;;;;6294383;22;20007;-89
2021/06/29 16:52:13;;;;;;;3.95;2.97;;;22.40;99.90;;;;;;6324266;22;20380;-94
2021/06/29 16:55:20;;;;;;;;;;;;;;;;;;;;;
2021/06/29 16:57:56;;;;;;;3.55;2.55;;;22.10;99.90;;;;;;6351718;22;20034;-94
2021/06/29 17:00:30;;;;;;;3.67;2.60;;;21.90;99.90;;;;;;6326069;22;20005;-91
2021/06/29 17:03:33;;;;;;;4.00;2.60;;;22.00;99.90;;;;;;6352521;22;20048;-94
2021/06/29 17:06:11;;;;;;;3.93;3.03;;;22.10;99.90;;;;;;6319440;22;20014;-95
2021/06/29 17:09:01;;;;;;;4.72;3.13;;;22.00;99.90;;;;;;6327673;22;20046;-91
2021/06/29 17:11:30;;;;;;;3.90;2.80;;;22.00;99.90;;;;;;6321096;22;20076;-92
2021/06/29 17:14:29;;;;;;;;;;;;;;;;;;;;;
2021/06/29 17:17:00;;;;;;;2.75;1.88;;;21.70;99.90;;;;;;6348612;22;20021;-92
2021/06/29 17:19:43;;;;;;;2.33;2.05;;;21.70;99.90;;;;;;6322815;22;20033;-95
2021/06/29 17:22:50;;;;;;;3.00;2.13;;;21.70;99.90;;;;;;6316620;22;20014;-93
2021/06/29 17:25:48;;;;;;;;;;;;;;;;;;;;;
2021/06/29 17:31:22;;;;;;;3.67;2.80;;;21.50;99.90;;;;;;6350985;22;20041;-92
2021/06/29 17:40:38;;;;;;;3.45;2.13;;;21.00;99.90;;;;;;6262774;23;20027;-89
2021/06/29 17:43:16;;;;;;;2.50;1.98;;;21.00;99.90;;;;;;6216646;23;20007;-90
2021/06/29 17:51:55;;;;;;;;;;;;;;;;;;;;;
2021/06/29 17:54:54;;;;;;;2.97;2.50;;;20.70;99.90;;;;;;6253616;22;20082;-93
2021/06/29 17:57:24;;;;;;;3.10;2.45;;;20.60;99.90;;;;;;6305255;22;20026;-92
2021/06/29 17:59:57;;;;;;;3.47;2.45;;;20.50;99.90;;;;;;6257192;22;20011;-91
2021/06/29 18:02:36;;;;;;;2.53;1.95;;;20.40;99.90;;;;;;6291998;22;20031;-93
2021/06/29 18:05:07;;;;;;;3.95;2.55;;;20.30;99.90;;;;;;6287883;22;20011;-91
2021/06/29 18:08:03;;;;;;;4.13;2.13;;;20.30;99.90;;;;;;6315269;22;19999;-92
2021/06/29 18:10:40;;;;;;;5.30;2.47;;;20.20;99.90;;;;;;6225342;22;20010;-88
2021/06/29 18:16:41;;;;;;;2.83;2.22;;;20.20;99.90;;;;;;6284250;22;20045;-90
2021/06/29 18:19:14;;;;;;;2.83;1.80;;;20.20;99.90;;;;;;6292525;22;20013;-92
2021/06/29 18:22:02;;;;;;;;;;;20.20;99.90;;;;;;6316748;22;20274;-91
2021/06/29 18:24:31;;;;;;;3.25;1.67;;;20.10;99.90;;;;;;6278916;22;19951;-86
2021/06/29 18:27:00;;;;;;;2.80;1.75;;;20.20;99.90;;;;;;6271238;22;20003;-89
2021/06/29 18:29:29;;;;;;;2.20;1.65;;;20.20;99.90;;;;;;6319408;22;20333;-91
2021/06/29 18:35:09;;;;;;;2.85;1.50;;;20.20;99.90;;;;;;6295238;22;20015;-91
2021/06/29 18:38:10;;;;;;;2.85;1.50;;;20.10;99.90;;;;;;6301142;22;20012;-86
2021/06/29 18:40:44;;;;;;;3.10;1.98;;;20.10;99.90;;;;;;6320735;22;20026;-90
2021/06/29 18:43:19;;;;;;;3.85;1.90;;;20.00;99.90;;;;;;6281823;22;20125;-90
2021/06/29 18:45:49;;;;;;;2.00;1.65;;;19.90;99.90;;;;;;6310550;22;20018;-93
2021/06/29 18:48:16;;;;;;;4.65;1.98;;;19.90;99.90;;;;;;6259466;22;20007;-89